sensor_id;sensor_type;location;lat;lon;timestamp;P1;durP1;ratioP1;P2;durP2;ratioP2
40659;SDS011;26753;45.544;9.232;2024-01-07T00:00:04;37.33;;;23.23;;
40659;SDS011;26753;45.544;9.232;2024-01-07T00:02:43;35.25;;;23.00;;
40659;SDS011;26753;45.544;9.232;2024-01-07T00:05:09;35.72;;;22.45;;
40659;SDS011;26753;45.544;9.232;2024-01-07T00:07:47;35.63;;;22.48;;
40659;SDS011;26753;45.544;9.232;2024-01-07T00:10:34;33.00;;;21.50;;
40659;SDS011;26753;45.544;9.232;2024-01-07T00:13:27;36.08;;;22.45;;
40659;SDS011;26753;45.544;9.232;2024-01-07T00:16:42;34.78;;;21.77;;
40659;SDS011;26753;45.544;9.232;2024-01-07T00:22:22;35.30;;;22.00;;
40659;SDS011;26753;45.544;9.232;2024-01-07T00:24:59;41.72;;;23.58;;
40659;SDS011;26753;45.544;9.232;2024-01-07T00:30:51;36.42;;;22.77;;
40659;SDS011;26753;45.544;9.232;2024-01-07T00:33:49;39.22;;;23.17;;
40659;SDS011;26753;45.544;9.232;2024-01-07T00:42:40;33.22;;;21.40;;
40659;SDS011;26753;45.544;9.232;2024-01-07T00:45:27;34.53;;;21.98;;
40659;SDS011;26753;45.544;9.232;2024-01-07T00:48:20;31.92;;;21.40;;
40659;SDS011;26753;45.544;9.232;2024-01-07T01:01:02;34.42;;;22.23;;
40659;SDS011;26753;45.544;9.232;2024-01-07T01:03:28;33.17;;;21.80;;
40659;SDS011;26753;45.544;9.232;2024-01-07T01:06:00;35.50;;;22.77;;
40659;SDS011;26753;45.544;9.232;2024-01-07T01:11:12;34.97;;;22.50;;
40659;SDS011;26753;45.544;9.232;2024-01-07T01:17:01;38.13;;;22.80;;
40659;SDS011;26753;45.544;9.232;2024-01-07T01:29:41;39.20;;;24.45;;
40659;SDS011;26753;45.544;9.232;2024-01-07T01:32:16;39.35;;;24.70;;
40659;SDS011;26753;45.544;9.232;2024-01-07T01:34:42;38.97;;;24.40;;
40659;SDS011;26753;45.544;9.232;2024-01-07T01:37:08;41.13;;;24.58;;
40659;SDS011;26753;45.544;9.232;2024-01-07T01:39:46;40.78;;;25.73;;
40659;SDS011;26753;45.544;9.232;2024-01-07T01:42:12;37.88;;;23.42;;
40659;SDS011;26753;45.544;9.232;2024-01-07T01:44:38;36.90;;;23.88;;
40659;SDS011;26753;45.544;9.232;2024-01-07T01:47:05;39.55;;;24.63;;
40659;SDS011;26753;45.544;9.232;2024-01-07T01:49:37;39.60;;;24.77;;
40659;SDS011;26753;45.544;9.232;2024-01-07T01:52:10;42.90;;;25.02;;
40659;SDS011;26753;45.544;9.232;2024-01-07T01:54:57;39.70;;;23.88;;
40659;SDS011;26753;45.544;9.232;2024-01-07T01:57:51;43.17;;;25.65;;
40659;SDS011;26753;45.544;9.232;2024-01-07T02:00:19;51.15;;;28.90;;
40659;SDS011;26753;45.544;9.232;2024-01-07T02:02:45;46.78;;;26.73;;
40659;SDS011;26753;45.544;9.232;2024-01-07T02:05:11;51.33;;;28.50;;
40659;SDS011;26753;45.544;9.232;2024-01-07T02:07:40;41.72;;;26.25;;
40659;SDS011;26753;45.544;9.232;2024-01-07T02:10:06;41.25;;;25.27;;
40659;SDS011;26753;45.544;9.232;2024-01-07T02:12:35;40.38;;;24.88;;
40659;SDS011;26753;45.544;9.232;2024-01-07T02:18:12;36.60;;;23.25;;
40659;SDS011;26753;45.544;9.232;2024-01-07T02:23:42;38.42;;;23.98;;
40659;SDS011;26753;45.544;9.232;2024-01-07T02:26:10;41.33;;;24.38;;
40659;SDS011;26753;45.544;9.232;2024-01-07T02:28:44;43.75;;;26.70;;
40659;SDS011;26753;45.544;9.232;2024-01-07T02:31:13;44.08;;;26.60;;
40659;SDS011;26753;45.544;9.232;2024-01-07T02:33:41;55.17;;;30.52;;
40659;SDS011;26753;45.544;9.232;2024-01-07T02:36:07;53.30;;;28.90;;
40659;SDS011;26753;45.544;9.232;2024-01-07T02:38:36;49.83;;;28.38;;
40659;SDS011;26753;45.544;9.232;2024-01-07T02:41:23;49.08;;;28.65;;
40659;SDS011;26753;45.544;9.232;2024-01-07T02:43:52;51.55;;;28.48;;
40659;SDS011;26753;45.544;9.232;2024-01-07T02:58:37;49.13;;;27.92;;
40659;SDS011;26753;45.544;9.232;2024-01-07T03:01:03;47.80;;;27.27;;
40659;SDS011;26753;45.544;9.232;2024-01-07T03:03:55;51.58;;;28.30;;
40659;SDS011;26753;45.544;9.232;2024-01-07T03:19:06;64.93;;;33.03;;
40659;SDS011;26753;45.544;9.232;2024-01-07T03:24:35;59.17;;;30.52;;
40659;SDS011;26753;45.544;9.232;2024-01-07T03:27:05;56.25;;;30.33;;
40659;SDS011;26753;45.544;9.232;2024-01-07T03:29:31;52.40;;;29.17;;
40659;SDS011;26753;45.544;9.232;2024-01-07T03:35:45;59.47;;;31.42;;
40659;SDS011;26753;45.544;9.232;2024-01-07T03:46:36;59.47;;;29.83;;
40659;SDS011;26753;45.544;9.232;2024-01-07T03:55:54;53.97;;;28.05;;
40659;SDS011;26753;45.544;9.232;2024-01-07T04:01:42;52.38;;;27.85;;
40659;SDS011;26753;45.544;9.232;2024-01-07T04:04:39;55.83;;;29.35;;
40659;SDS011;26753;45.544;9.232;2024-01-07T04:07:23;52.70;;;27.95;;
40659;SDS011;26753;45.544;9.232;2024-01-07T04:09:56;55.03;;;29.13;;
40659;SDS011;26753;45.544;9.232;2024-01-07T04:12:21;54.30;;;28.70;;
40659;SDS011;26753;45.544;9.232;2024-01-07T04:15:17;56.03;;;28.65;;
40659;SDS011;26753;45.544;9.232;2024-01-07T04:17:45;59.92;;;29.40;;
40659;SDS011;26753;45.544;9.232;2024-01-07T04:20:33;53.58;;;28.85;;
40659;SDS011;26753;45.544;9.232;2024-01-07T04:30:18;54.47;;;28.30;;
40659;SDS011;26753;45.544;9.232;2024-01-07T04:32:46;56.85;;;29.50;;
40659;SDS011;26753;45.544;9.232;2024-01-07T04:35:15;49.78;;;27.10;;
40659;SDS011;26753;45.544;9.232;2024-01-07T04:37:41;52.65;;;27.50;;
40659;SDS011;26753;45.544;9.232;2024-01-07T04:40:07;54.33;;;28.45;;
40659;SDS011;26753;45.544;9.232;2024-01-07T04:42:34;50.92;;;27.27;;
40659;SDS011;26753;45.544;9.232;2024-01-07T04:45:00;51.65;;;27.55;;
40659;SDS011;26753;45.544;9.232;2024-01-07T04:47:30;49.75;;;26.52;;
40659;SDS011;26753;45.544;9.232;2024-01-07T04:56:48;45.78;;;25.73;;
40659;SDS011;26753;45.544;9.232;2024-01-07T04:59:14;49.23;;;26.20;;
40659;SDS011;26753;45.544;9.232;2024-01-07T05:01:49;46.78;;;26.20;;
40659;SDS011;26753;45.544;9.232;2024-01-07T05:04:16;49.78;;;26.02;;
40659;SDS011;26753;45.544;9.232;2024-01-07T05:06:43;46.33;;;25.83;;
40659;SDS011;26753;45.544;9.232;2024-01-07T05:09:09;47.83;;;26.35;;
40659;SDS011;26753;45.544;9.232;2024-01-07T05:11:39;47.33;;;26.35;;
40659;SDS011;26753;45.544;9.232;2024-01-07T05:14:05;45.95;;;25.55;;
40659;SDS011;26753;45.544;9.232;2024-01-07T05:16:40;42.50;;;25.42;;
40659;SDS011;26753;45.544;9.232;2024-01-07T05:20:18;42.65;;;25.20;;
40659;SDS011;26753;45.544;9.232;2024-01-07T05:22:46;47.53;;;25.25;;
40659;SDS011;26753;45.544;9.232;2024-01-07T05:25:16;41.88;;;24.88;;
40659;SDS011;26753;45.544;9.232;2024-01-07T05:28:29;43.33;;;24.85;;
40659;SDS011;26753;45.544;9.232;2024-01-07T05:31:26;42.83;;;24.38;;
40659;SDS011;26753;45.544;9.232;2024-01-07T05:33:46;41.80;;;24.70;;
40659;SDS011;26753;45.544;9.232;2024-01-07T05:36:18;43.42;;;25.35;;
40659;SDS011;26753;45.544;9.232;2024-01-07T05:38:44;41.80;;;24.50;;
40659;SDS011;26753;45.544;9.232;2024-01-07T05:41:10;39.85;;;24.27;;
40659;SDS011;26753;45.544;9.232;2024-01-07T05:43:55;37.40;;;23.70;;
40659;SDS011;26753;45.544;9.232;2024-01-07T05:50:05;43.95;;;25.00;;
40659;SDS011;26753;45.544;9.232;2024-01-07T05:52:34;42.58;;;25.35;;
40659;SDS011;26753;45.544;9.232;2024-01-07T05:55:08;42.42;;;25.13;;
40659;SDS011;26753;45.544;9.232;2024-01-07T05:58:01;43.20;;;25.92;;
40659;SDS011;26753;45.544;9.232;2024-01-07T06:00:50;41.70;;;24.50;;
40659;SDS011;26753;45.544;9.232;2024-01-07T06:10:54;43.58;;;25.25;;
40659;SDS011;26753;45.544;9.232;2024-01-07T06:17:14;41.08;;;23.45;;
40659;SDS011;26753;45.544;9.232;2024-01-07T06:19:39;40.25;;;22.80;;
40659;SDS011;26753;45.544;9.232;2024-01-07T06:22:05;38.97;;;23.55;;
40659;SDS011;26753;45.544;9.232;2024-01-07T06:24:31;37.58;;;22.95;;
40659;SDS011;26753;45.544;9.232;2024-01-07T06:26:57;40.03;;;23.63;;
40659;SDS011;26753;45.544;9.232;2024-01-07T06:29:23;39.55;;;23.55;;
40659;SDS011;26753;45.544;9.232;2024-01-07T06:31:52;38.60;;;23.40;;
40659;SDS011;26753;45.544;9.232;2024-01-07T06:34:21;38.43;;;23.43;;
40659;SDS011;26753;45.544;9.232;2024-01-07T06:37:21;36.53;;;22.77;;
40659;SDS011;26753;45.544;9.232;2024-01-07T06:39:47;37.38;;;23.02;;
40659;SDS011;26753;45.544;9.232;2024-01-07T06:45:29;36.72;;;22.65;;
40659;SDS011;26753;45.544;9.232;2024-01-07T06:48:06;40.90;;;23.40;;
40659;SDS011;26753;45.544;9.232;2024-01-07T06:50:33;36.65;;;22.77;;
40659;SDS011;26753;45.544;9.232;2024-01-07T06:52:59;36.40;;;22.98;;
40659;SDS011;26753;45.544;9.232;2024-01-07T06:55:25;39.42;;;24.20;;
40659;SDS011;26753;45.544;9.232;2024-01-07T06:57:51;38.15;;;22.73;;
40659;SDS011;26753;45.544;9.232;2024-01-07T07:00:17;36.78;;;22.55;;
40659;SDS011;26753;45.544;9.232;2024-01-07T07:02:52;38.90;;;23.60;;
40659;SDS011;26753;45.544;9.232;2024-01-07T07:05:57;40.47;;;23.23;;
40659;SDS011;26753;45.544;9.232;2024-01-07T07:11:41;38.28;;;22.73;;
40659;SDS011;26753;45.544;9.232;2024-01-07T07:14:08;40.15;;;23.90;;
40659;SDS011;26753;45.544;9.232;2024-01-07T07:17:14;41.20;;;23.80;;
40659;SDS011;26753;45.544;9.232;2024-01-07T07:19:40;43.47;;;24.88;;
40659;SDS011;26753;45.544;9.232;2024-01-07T07:22:07;42.10;;;25.00;;
40659;SDS011;26753;45.544;9.232;2024-01-07T07:24:33;40.88;;;23.75;;
40659;SDS011;26753;45.544;9.232;2024-01-07T07:27:02;40.15;;;23.80;;
40659;SDS011;26753;45.544;9.232;2024-01-07T07:29:34;40.03;;;23.65;;
40659;SDS011;26753;45.544;9.232;2024-01-07T07:35:46;40.53;;;23.77;;
40659;SDS011;26753;45.544;9.232;2024-01-07T07:48:21;36.05;;;21.58;;
40659;SDS011;26753;45.544;9.232;2024-01-07T07:54:30;35.47;;;21.65;;
40659;SDS011;26753;45.544;9.232;2024-01-07T07:56:58;37.08;;;22.27;;
40659;SDS011;26753;45.544;9.232;2024-01-07T07:59:42;38.95;;;22.52;;
40659;SDS011;26753;45.544;9.232;2024-01-07T08:02:08;35.50;;;21.95;;
40659;SDS011;26753;45.544;9.232;2024-01-07T08:04:34;34.03;;;21.33;;
40659;SDS011;26753;45.544;9.232;2024-01-07T08:07:00;31.95;;;21.33;;
40659;SDS011;26753;45.544;9.232;2024-01-07T08:09:27;30.95;;;20.30;;
40659;SDS011;26753;45.544;9.232;2024-01-07T08:12:02;33.08;;;21.70;;
40659;SDS011;26753;45.544;9.232;2024-01-07T08:14:31;31.33;;;21.33;;
40659;SDS011;26753;45.544;9.232;2024-01-07T08:16:57;34.10;;;21.80;;
40659;SDS011;26753;45.544;9.232;2024-01-07T08:19:24;33.58;;;21.02;;
40659;SDS011;26753;45.544;9.232;2024-01-07T08:21:53;35.55;;;22.27;;
40659;SDS011;26753;45.544;9.232;2024-01-07T08:24:21;34.53;;;21.77;;
40659;SDS011;26753;45.544;9.232;2024-01-07T08:27:08;34.20;;;21.30;;
40659;SDS011;26753;45.544;9.232;2024-01-07T08:29:34;34.35;;;22.02;;
40659;SDS011;26753;45.544;9.232;2024-01-07T08:32:00;33.63;;;22.58;;
40659;SDS011;26753;45.544;9.232;2024-01-07T08:34:26;34.47;;;21.75;;
40659;SDS011;26753;45.544;9.232;2024-01-07T08:36:54;38.70;;;23.27;;
40659;SDS011;26753;45.544;9.232;2024-01-07T08:39:20;38.40;;;23.73;;
40659;SDS011;26753;45.544;9.232;2024-01-07T08:41:46;40.03;;;24.77;;
40659;SDS011;26753;45.544;9.232;2024-01-07T08:44:12;41.55;;;23.52;;
40659;SDS011;26753;45.544;9.232;2024-01-07T08:46:41;37.28;;;22.42;;
40659;SDS011;26753;45.544;9.232;2024-01-07T08:49:11;36.08;;;22.88;;
40659;SDS011;26753;45.544;9.232;2024-01-07T08:51:41;36.58;;;23.42;;
40659;SDS011;26753;45.544;9.232;2024-01-07T08:54:07;37.15;;;22.75;;
40659;SDS011;26753;45.544;9.232;2024-01-07T08:56:36;36.63;;;22.23;;
40659;SDS011;26753;45.544;9.232;2024-01-07T08:59:05;35.92;;;22.48;;
40659;SDS011;26753;45.544;9.232;2024-01-07T09:04:49;37.60;;;23.13;;
40659;SDS011;26753;45.544;9.232;2024-01-07T09:07:15;35.00;;;21.95;;
40659;SDS011;26753;45.544;9.232;2024-01-07T09:09:41;38.92;;;23.80;;
40659;SDS011;26753;45.544;9.232;2024-01-07T09:12:07;36.83;;;23.80;;
40659;SDS011;26753;45.544;9.232;2024-01-07T09:14:33;51.65;;;27.67;;
40659;SDS011;26753;45.544;9.232;2024-01-07T09:16:59;38.35;;;23.25;;
40659;SDS011;26753;45.544;9.232;2024-01-07T09:22:33;44.50;;;25.00;;
40659;SDS011;26753;45.544;9.232;2024-01-07T09:28:48;48.92;;;26.38;;
40659;SDS011;26753;45.544;9.232;2024-01-07T09:35:03;42.22;;;24.77;;
40659;SDS011;26753;45.544;9.232;2024-01-07T09:45:12;37.90;;;22.73;;
40659;SDS011;26753;45.544;9.232;2024-01-07T09:47:41;40.00;;;23.55;;
40659;SDS011;26753;45.544;9.232;2024-01-07T09:50:55;40.00;;;23.55;;
40659;SDS011;26753;45.544;9.232;2024-01-07T09:53:24;40.15;;;24.52;;
40659;SDS011;26753;45.544;9.232;2024-01-07T09:56:11;37.05;;;23.08;;
40659;SDS011;26753;45.544;9.232;2024-01-07T09:58:44;35.13;;;22.63;;
40659;SDS011;26753;45.544;9.232;2024-01-07T10:01:13;36.10;;;22.20;;
40659;SDS011;26753;45.544;9.232;2024-01-07T10:03:39;35.53;;;22.02;;
40659;SDS011;26753;45.544;9.232;2024-01-07T10:06:20;34.33;;;21.65;;
40659;SDS011;26753;45.544;9.232;2024-01-07T10:08:49;38.40;;;21.63;;
40659;SDS011;26753;45.544;9.232;2024-01-07T10:11:17;39.38;;;22.85;;
40659;SDS011;26753;45.544;9.232;2024-01-07T10:13:46;31.83;;;21.25;;
40659;SDS011;26753;45.544;9.232;2024-01-07T10:16:15;32.10;;;20.73;;
40659;SDS011;26753;45.544;9.232;2024-01-07T10:18:41;35.67;;;21.90;;
40659;SDS011;26753;45.544;9.232;2024-01-07T10:21:07;39.95;;;23.20;;
40659;SDS011;26753;45.544;9.232;2024-01-07T10:23:38;36.38;;;23.25;;
40659;SDS011;26753;45.544;9.232;2024-01-07T10:26:04;32.30;;;21.65;;
40659;SDS011;26753;45.544;9.232;2024-01-07T10:28:31;35.15;;;22.27;;
40659;SDS011;26753;45.544;9.232;2024-01-07T10:31:00;29.08;;;19.50;;
40659;SDS011;26753;45.544;9.232;2024-01-07T10:33:30;29.35;;;19.42;;
40659;SDS011;26753;45.544;9.232;2024-01-07T10:36:05;34.83;;;21.35;;
40659;SDS011;26753;45.544;9.232;2024-01-07T10:38:32;33.78;;;21.38;;
40659;SDS011;26753;45.544;9.232;2024-01-07T10:41:01;32.28;;;20.35;;
40659;SDS011;26753;45.544;9.232;2024-01-07T10:43:30;30.48;;;20.83;;
40659;SDS011;26753;45.544;9.232;2024-01-07T10:45:56;28.50;;;17.83;;
40659;SDS011;26753;45.544;9.232;2024-01-07T10:48:30;25.77;;;17.55;;
40659;SDS011;26753;45.544;9.232;2024-01-07T10:51:00;25.45;;;17.10;;
40659;SDS011;26753;45.544;9.232;2024-01-07T10:53:27;22.38;;;15.73;;
40659;SDS011;26753;45.544;9.232;2024-01-07T10:56:00;18.90;;;13.50;;
40659;SDS011;26753;45.544;9.232;2024-01-07T10:58:43;19.98;;;14.63;;
40659;SDS011;26753;45.544;9.232;2024-01-07T11:01:12;18.83;;;13.88;;
40659;SDS011;26753;45.544;9.232;2024-01-07T11:03:46;21.50;;;15.40;;
40659;SDS011;26753;45.544;9.232;2024-01-07T11:06:23;19.63;;;13.40;;
40659;SDS011;26753;45.544;9.232;2024-01-07T11:09:14;21.08;;;14.18;;
40659;SDS011;26753;45.544;9.232;2024-01-07T11:11:50;17.42;;;13.00;;
40659;SDS011;26753;45.544;9.232;2024-01-07T11:17:02;24.35;;;14.45;;
40659;SDS011;26753;45.544;9.232;2024-01-07T11:19:31;29.27;;;15.43;;
40659;SDS011;26753;45.544;9.232;2024-01-07T11:24:53;22.35;;;15.93;;
40659;SDS011;26753;45.544;9.232;2024-01-07T11:27:21;24.08;;;14.70;;
40659;SDS011;26753;45.544;9.232;2024-01-07T11:29:58;20.50;;;15.10;;
40659;SDS011;26753;45.544;9.232;2024-01-07T11:32:42;20.65;;;14.07;;
40659;SDS011;26753;45.544;9.232;2024-01-07T11:35:09;20.13;;;14.00;;
40659;SDS011;26753;45.544;9.232;2024-01-07T11:37:35;21.45;;;13.85;;
40659;SDS011;26753;45.544;9.232;2024-01-07T11:40:04;21.95;;;14.80;;
40659;SDS011;26753;45.544;9.232;2024-01-07T11:42:36;20.42;;;14.02;;
40659;SDS011;26753;45.544;9.232;2024-01-07T11:45:02;21.20;;;13.70;;
40659;SDS011;26753;45.544;9.232;2024-01-07T11:47:28;20.17;;;13.68;;
40659;SDS011;26753;45.544;9.232;2024-01-07T11:49:54;19.08;;;13.32;;
40659;SDS011;26753;45.544;9.232;2024-01-07T11:52:20;20.08;;;12.82;;
40659;SDS011;26753;45.544;9.232;2024-01-07T11:54:49;19.95;;;12.80;;
40659;SDS011;26753;45.544;9.232;2024-01-07T11:57:15;20.35;;;13.23;;
40659;SDS011;26753;45.544;9.232;2024-01-07T12:00:02;17.55;;;12.65;;
40659;SDS011;26753;45.544;9.232;2024-01-07T12:02:28;19.85;;;12.00;;
40659;SDS011;26753;45.544;9.232;2024-01-07T12:04:57;19.80;;;12.20;;
40659;SDS011;26753;45.544;9.232;2024-01-07T12:07:44;18.67;;;12.43;;
40659;SDS011;26753;45.544;9.232;2024-01-07T12:10:12;19.23;;;12.43;;
40659;SDS011;26753;45.544;9.232;2024-01-07T12:12:42;16.30;;;11.25;;
40659;SDS011;26753;45.544;9.232;2024-01-07T12:15:12;16.42;;;10.90;;
40659;SDS011;26753;45.544;9.232;2024-01-07T12:17:59;15.55;;;10.38;;
40659;SDS011;26753;45.544;9.232;2024-01-07T12:20:26;14.13;;;10.25;;
40659;SDS011;26753;45.544;9.232;2024-01-07T12:22:56;15.07;;;10.38;;
40659;SDS011;26753;45.544;9.232;2024-01-07T12:28:07;11.30;;;8.45;;
40659;SDS011;26753;45.544;9.232;2024-01-07T12:30:34;15.18;;;9.02;;
40659;SDS011;26753;45.544;9.232;2024-01-07T12:33:04;9.90;;;7.97;;
40659;SDS011;26753;45.544;9.232;2024-01-07T12:35:31;11.30;;;8.27;;
40659;SDS011;26753;45.544;9.232;2024-01-07T12:37:58;14.40;;;8.65;;
40659;SDS011;26753;45.544;9.232;2024-01-07T12:40:31;13.23;;;8.20;;
40659;SDS011;26753;45.544;9.232;2024-01-07T12:42:57;10.45;;;7.97;;
40659;SDS011;26753;45.544;9.232;2024-01-07T12:45:25;10.15;;;8.00;;
40659;SDS011;26753;45.544;9.232;2024-01-07T12:48:12;11.07;;;7.97;;
40659;SDS011;26753;45.544;9.232;2024-01-07T12:50:44;16.85;;;7.90;;
40659;SDS011;26753;45.544;9.232;2024-01-07T12:53:35;11.38;;;8.00;;
40659;SDS011;26753;45.544;9.232;2024-01-07T12:56:01;10.70;;;7.30;;
40659;SDS011;26753;45.544;9.232;2024-01-07T12:58:33;9.57;;;6.97;;
40659;SDS011;26753;45.544;9.232;2024-01-07T13:00:59;11.18;;;6.70;;
40659;SDS011;26753;45.544;9.232;2024-01-07T13:03:25;10.45;;;6.55;;
40659;SDS011;26753;45.544;9.232;2024-01-07T13:06:10;7.72;;;6.30;;
40659;SDS011;26753;45.544;9.232;2024-01-07T13:11:54;10.70;;;6.97;;
40659;SDS011;26753;45.544;9.232;2024-01-07T13:14:49;14.15;;;7.18;;
40659;SDS011;26753;45.544;9.232;2024-01-07T13:17:19;11.25;;;7.03;;
40659;SDS011;26753;45.544;9.232;2024-01-07T13:19:56;11.57;;;7.15;;
40659;SDS011;26753;45.544;9.232;2024-01-07T13:22:31;10.48;;;7.68;;
40659;SDS011;26753;45.544;9.232;2024-01-07T13:25:06;10.80;;;7.90;;
40659;SDS011;26753;45.544;9.232;2024-01-07T13:27:41;11.40;;;7.32;;
40659;SDS011;26753;45.544;9.232;2024-01-07T13:30:34;12.30;;;8.10;;
40659;SDS011;26753;45.544;9.232;2024-01-07T13:33:12;14.30;;;8.68;;
40659;SDS011;26753;45.544;9.232;2024-01-07T13:35:41;11.35;;;8.95;;
40659;SDS011;26753;45.544;9.232;2024-01-07T13:38:13;14.15;;;10.23;;
40659;SDS011;26753;45.544;9.232;2024-01-07T13:40:41;14.90;;;10.18;;
40659;SDS011;26753;45.544;9.232;2024-01-07T13:46:32;14.63;;;10.75;;
40659;SDS011;26753;45.544;9.232;2024-01-07T13:49:44;16.00;;;11.73;;
40659;SDS011;26753;45.544;9.232;2024-01-07T13:55:56;18.73;;;13.60;;
40659;SDS011;26753;45.544;9.232;2024-01-07T13:59:10;43.65;;;30.10;;
40659;SDS011;26753;45.544;9.232;2024-01-07T14:04:38;26.73;;;18.30;;
40659;SDS011;26753;45.544;9.232;2024-01-07T14:07:15;21.48;;;16.33;;
40659;SDS011;26753;45.544;9.232;2024-01-07T14:09:52;22.13;;;16.48;;
40659;SDS011;26753;45.544;9.232;2024-01-07T14:12:21;24.17;;;17.23;;
40659;SDS011;26753;45.544;9.232;2024-01-07T14:14:47;24.23;;;16.92;;
40659;SDS011;26753;45.544;9.232;2024-01-07T14:17:18;25.58;;;17.08;;
40659;SDS011;26753;45.544;9.232;2024-01-07T14:19:44;22.75;;;17.13;;
40659;SDS011;26753;45.544;9.232;2024-01-07T14:22:19;21.52;;;15.27;;
40659;SDS011;26753;45.544;9.232;2024-01-07T14:24:54;24.90;;;16.00;;
40659;SDS011;26753;45.544;9.232;2024-01-07T14:27:29;24.67;;;16.13;;
40659;SDS011;26753;45.544;9.232;2024-01-07T14:30:04;21.70;;;15.32;;
40659;SDS011;26753;45.544;9.232;2024-01-07T14:33:00;19.80;;;14.15;;
40659;SDS011;26753;45.544;9.232;2024-01-07T14:35:48;20.85;;;14.88;;
40659;SDS011;26753;45.544;9.232;2024-01-07T14:38:14;18.45;;;14.15;;
40659;SDS011;26753;45.544;9.232;2024-01-07T14:41:02;19.73;;;14.65;;
40659;SDS011;26753;45.544;9.232;2024-01-07T14:43:28;19.77;;;13.93;;
40659;SDS011;26753;45.544;9.232;2024-01-07T14:45:54;23.20;;;14.55;;
40659;SDS011;26753;45.544;9.232;2024-01-07T14:48:20;18.05;;;13.20;;
40659;SDS011;26753;45.544;9.232;2024-01-07T14:50:58;15.50;;;12.43;;
40659;SDS011;26753;45.544;9.232;2024-01-07T14:53:30;15.80;;;11.80;;
40659;SDS011;26753;45.544;9.232;2024-01-07T14:55:59;17.63;;;13.40;;
40659;SDS011;26753;45.544;9.232;2024-01-07T14:58:25;18.73;;;14.32;;
40659;SDS011;26753;45.544;9.232;2024-01-07T15:00:56;24.98;;;15.48;;
40659;SDS011;26753;45.544;9.232;2024-01-07T15:03:23;16.70;;;13.60;;
40659;SDS011;26753;45.544;9.232;2024-01-07T15:05:50;17.73;;;13.63;;
40659;SDS011;26753;45.544;9.232;2024-01-07T15:08:19;18.15;;;13.65;;
40659;SDS011;26753;45.544;9.232;2024-01-07T15:10:48;18.42;;;14.38;;
40659;SDS011;26753;45.544;9.232;2024-01-07T15:13:14;23.13;;;14.80;;
40659;SDS011;26753;45.544;9.232;2024-01-07T15:15:39;24.98;;;15.98;;
40659;SDS011;26753;45.544;9.232;2024-01-07T15:18:06;25.90;;;16.27;;
40659;SDS011;26753;45.544;9.232;2024-01-07T15:20:32;26.20;;;16.90;;
40659;SDS011;26753;45.544;9.232;2024-01-07T15:22:58;22.73;;;15.82;;
40659;SDS011;26753;45.544;9.232;2024-01-07T15:25:23;19.88;;;15.35;;
40659;SDS011;26753;45.544;9.232;2024-01-07T15:27:49;23.77;;;16.00;;
40659;SDS011;26753;45.544;9.232;2024-01-07T15:30:16;24.88;;;15.57;;
40659;SDS011;26753;45.544;9.232;2024-01-07T15:32:42;23.33;;;16.55;;
40659;SDS011;26753;45.544;9.232;2024-01-07T15:35:08;23.90;;;16.42;;
40659;SDS011;26753;45.544;9.232;2024-01-07T15:37:34;20.05;;;15.82;;
40659;SDS011;26753;45.544;9.232;2024-01-07T15:40:03;21.10;;;15.63;;
40659;SDS011;26753;45.544;9.232;2024-01-07T15:42:29;23.38;;;15.80;;
40659;SDS011;26753;45.544;9.232;2024-01-07T15:44:58;20.48;;;14.60;;
40659;SDS011;26753;45.544;9.232;2024-01-07T15:47:23;18.13;;;14.55;;
40659;SDS011;26753;45.544;9.232;2024-01-07T15:49:52;17.92;;;14.60;;
40659;SDS011;26753;45.544;9.232;2024-01-07T15:52:18;19.77;;;14.80;;
40659;SDS011;26753;45.544;9.232;2024-01-07T15:54:44;20.48;;;15.30;;
40659;SDS011;26753;45.544;9.232;2024-01-07T15:57:10;19.55;;;15.05;;
40659;SDS011;26753;45.544;9.232;2024-01-07T15:59:35;20.77;;;15.00;;
40659;SDS011;26753;45.544;9.232;2024-01-07T16:02:05;20.88;;;15.77;;
40659;SDS011;26753;45.544;9.232;2024-01-07T16:04:31;20.52;;;15.30;;
40659;SDS011;26753;45.544;9.232;2024-01-07T16:06:56;20.92;;;15.57;;
40659;SDS011;26753;45.544;9.232;2024-01-07T16:09:22;21.23;;;15.95;;
40659;SDS011;26753;45.544;9.232;2024-01-07T16:11:48;23.70;;;16.27;;
40659;SDS011;26753;45.544;9.232;2024-01-07T16:14:14;20.10;;;15.18;;
40659;SDS011;26753;45.544;9.232;2024-01-07T16:16:42;24.75;;;16.08;;
40659;SDS011;26753;45.544;9.232;2024-01-07T16:19:14;20.38;;;15.63;;
40659;SDS011;26753;45.544;9.232;2024-01-07T16:21:42;21.23;;;15.48;;
40659;SDS011;26753;45.544;9.232;2024-01-07T16:24:08;19.55;;;14.90;;
40659;SDS011;26753;45.544;9.232;2024-01-07T16:26:34;20.95;;;14.90;;
40659;SDS011;26753;45.544;9.232;2024-01-07T16:29:00;20.38;;;15.57;;
40659;SDS011;26753;45.544;9.232;2024-01-07T16:31:26;20.50;;;14.63;;
40659;SDS011;26753;45.544;9.232;2024-01-07T16:33:52;19.80;;;13.90;;
40659;SDS011;26753;45.544;9.232;2024-01-07T16:36:18;20.75;;;15.25;;
40659;SDS011;26753;45.544;9.232;2024-01-07T16:38:44;22.58;;;13.60;;
40659;SDS011;26753;45.544;9.232;2024-01-07T16:41:09;19.98;;;14.27;;
40659;SDS011;26753;45.544;9.232;2024-01-07T16:43:35;18.48;;;13.70;;
40659;SDS011;26753;45.544;9.232;2024-01-07T16:46:02;26.42;;;14.20;;
40659;SDS011;26753;45.544;9.232;2024-01-07T16:48:28;23.98;;;15.05;;
40659;SDS011;26753;45.544;9.232;2024-01-07T16:50:53;23.00;;;14.48;;
40659;SDS011;26753;45.544;9.232;2024-01-07T16:53:20;22.27;;;14.63;;
40659;SDS011;26753;45.544;9.232;2024-01-07T16:55:49;18.10;;;13.20;;
40659;SDS011;26753;45.544;9.232;2024-01-07T16:58:14;20.83;;;13.38;;
40659;SDS011;26753;45.544;9.232;2024-01-07T17:00:40;16.92;;;12.57;;
40659;SDS011;26753;45.544;9.232;2024-01-07T17:03:06;18.90;;;13.07;;
40659;SDS011;26753;45.544;9.232;2024-01-07T17:05:32;16.75;;;12.73;;
40659;SDS011;26753;45.544;9.232;2024-01-07T17:07:57;20.83;;;13.98;;
40659;SDS011;26753;45.544;9.232;2024-01-07T17:10:23;21.85;;;14.38;;
40659;SDS011;26753;45.544;9.232;2024-01-07T17:12:49;19.80;;;14.13;;
40659;SDS011;26753;45.544;9.232;2024-01-07T17:15:17;17.08;;;12.60;;
40659;SDS011;26753;45.544;9.232;2024-01-07T17:17:43;17.13;;;12.32;;
40659;SDS011;26753;45.544;9.232;2024-01-07T17:20:12;18.10;;;12.43;;
40659;SDS011;26753;45.544;9.232;2024-01-07T17:22:39;18.60;;;13.23;;
40659;SDS011;26753;45.544;9.232;2024-01-07T17:25:05;19.00;;;12.75;;
40659;SDS011;26753;45.544;9.232;2024-01-07T17:27:32;18.10;;;12.80;;
40659;SDS011;26753;45.544;9.232;2024-01-07T17:29:58;17.85;;;12.40;;
40659;SDS011;26753;45.544;9.232;2024-01-07T17:32:24;20.25;;;12.38;;
40659;SDS011;26753;45.544;9.232;2024-01-07T17:34:50;16.75;;;12.07;;
40659;SDS011;26753;45.544;9.232;2024-01-07T17:37:19;18.98;;;11.68;;
40659;SDS011;26753;45.544;9.232;2024-01-07T17:39:45;18.08;;;12.05;;
40659;SDS011;26753;45.544;9.232;2024-01-07T17:42:14;17.67;;;11.98;;
40659;SDS011;26753;45.544;9.232;2024-01-07T17:44:40;20.15;;;13.32;;
40659;SDS011;26753;45.544;9.232;2024-01-07T17:47:06;18.63;;;13.40;;
40659;SDS011;26753;45.544;9.232;2024-01-07T17:49:32;14.65;;;11.40;;
40659;SDS011;26753;45.544;9.232;2024-01-07T17:51:58;16.00;;;11.57;;
40659;SDS011;26753;45.544;9.232;2024-01-07T17:54:24;16.38;;;11.40;;
40659;SDS011;26753;45.544;9.232;2024-01-07T17:56:50;15.57;;;11.50;;
40659;SDS011;26753;45.544;9.232;2024-01-07T17:59:17;17.70;;;11.63;;